sensor_id;sensor_type;location;lat;lon;timestamp;temperature;humidity
72576;DHT22;60613;48.658;2.328;2022-10-28T06:02:37;21.70;60.80
72576;DHT22;60613;48.658;2.328;2022-10-28T06:05:02;21.70;61.90
72576;DHT22;60613;48.658;2.328;2022-10-28T06:07:28;21.70;61.70
72576;DHT22;60613;48.658;2.328;2022-10-28T06:09:54;21.70;61.60
72576;DHT22;60613;48.658;2.328;2022-10-28T06:12:20;21.70;61.60
72576;DHT22;60613;48.658;2.328;2022-10-28T06:14:45;21.70;60.90
72576;DHT22;60613;48.658;2.328;2022-10-28T06:17:11;21.80;60.70
72576;DHT22;60613;48.658;2.328;2022-10-28T06:19:37;21.80;61.30
72576;DHT22;60613;48.658;2.328;2022-10-28T06:22:02;21.80;61.60
72576;DHT22;60613;48.658;2.328;2022-10-28T06:24:28;21.70;61.50
72576;DHT22;60613;48.658;2.328;2022-10-28T06:26:53;21.70;61.40
72576;DHT22;60613;48.658;2.328;2022-10-28T06:29:19;21.70;61.40
72576;DHT22;60613;48.658;2.328;2022-10-28T06:31:45;21.70;61.10
72576;DHT22;60613;48.658;2.328;2022-10-28T06:34:11;21.70;61.20
72576;DHT22;60613;48.658;2.328;2022-10-28T06:36:37;21.70;61.00
72576;DHT22;60613;48.658;2.328;2022-10-28T06:39:04;21.70;61.20
72576;DHT22;60613;48.658;2.328;2022-10-28T06:41:29;21.60;61.00
72576;DHT22;60613;48.658;2.328;2022-10-28T06:43:55;21.60;60.80
72576;DHT22;60613;48.658;2.328;2022-10-28T06:46:20;21.70;60.80
72576;DHT22;60613;48.658;2.328;2022-10-28T06:48:46;21.70;60.80
72576;DHT22;60613;48.658;2.328;2022-10-28T06:51:12;21.70;60.30
72576;DHT22;60613;48.658;2.328;2022-10-28T06:53:37;21.70;60.40
72576;DHT22;60613;48.658;2.328;2022-10-28T06:56:03;21.70;60.30
72576;DHT22;60613;48.658;2.328;2022-10-28T06:58:29;21.80;60.20
72576;DHT22;60613;48.658;2.328;2022-10-28T07:00:55;21.90;60.10
72576;DHT22;60613;48.658;2.328;2022-10-28T07:03:20;21.90;60.00
72576;DHT22;60613;48.658;2.328;2022-10-28T07:05:47;21.90;60.00
72576;DHT22;60613;48.658;2.328;2022-10-28T07:08:14;22.00;59.90
72576;DHT22;60613;48.658;2.328;2022-10-28T07:10:40;22.00;59.70
72576;DHT22;60613;48.658;2.328;2022-10-28T07:13:05;22.00;59.30
72576;DHT22;60613;48.658;2.328;2022-10-28T07:15:31;22.00;59.30
72576;DHT22;60613;48.658;2.328;2022-10-28T07:17:58;22.00;59.00
72576;DHT22;60613;48.658;2.328;2022-10-28T07:20:25;21.90;59.10
72576;DHT22;60613;48.658;2.328;2022-10-28T07:22:58;21.90;59.10
72576;DHT22;60613;48.658;2.328;2022-10-28T07:25:28;22.00;59.00
72576;DHT22;60613;48.658;2.328;2022-10-28T07:27:58;22.00;58.80
72576;DHT22;60613;48.658;2.328;2022-10-28T07:30:24;22.10;58.80
72576;DHT22;60613;48.658;2.328;2022-10-28T07:32:50;22.10;58.50
72576;DHT22;60613;48.658;2.328;2022-10-28T07:35:16;22.00;58.50
72576;DHT22;60613;48.658;2.328;2022-10-28T07:37:41;22.00;58.50
72576;DHT22;60613;48.658;2.328;2022-10-28T07:40:07;22.00;58.50
72576;DHT22;60613;48.658;2.328;2022-10-28T07:42:33;22.00;58.60
72576;DHT22;60613;48.658;2.328;2022-10-28T07:44:59;22.00;59.10
72576;DHT22;60613;48.658;2.328;2022-10-28T07:47:25;22.10;59.10
72576;DHT22;60613;48.658;2.328;2022-10-28T07:49:51;22.10;59.10
72576;DHT22;60613;48.658;2.328;2022-10-28T07:52:19;22.20;59.60
72576;DHT22;60613;48.658;2.328;2022-10-28T07:54:45;22.10;59.60
72576;DHT22;60613;48.658;2.328;2022-10-28T07:57:10;22.10;59.80
72576;DHT22;60613;48.658;2.328;2022-10-28T07:59:36;22.10;59.60
72576;DHT22;60613;48.658;2.328;2022-10-28T08:02:02;22.00;59.70
72576;DHT22;60613;48.658;2.328;2022-10-28T08:04:29;22.00;59.70
72576;DHT22;60613;48.658;2.328;2022-10-28T08:06:54;22.10;59.60
72576;DHT22;60613;48.658;2.328;2022-10-28T08:09:20;22.10;59.80
72576;DHT22;60613;48.658;2.328;2022-10-28T08:11:46;22.00;60.00
72576;DHT22;60613;48.658;2.328;2022-10-28T08:14:11;22.00;60.00
72576;DHT22;60613;48.658;2.328;2022-10-28T08:16:37;22.00;60.00
72576;DHT22;60613;48.658;2.328;2022-10-28T08:19:02;22.00;60.00
72576;DHT22;60613;48.658;2.328;2022-10-28T08:21:28;22.00;60.00
72576;DHT22;60613;48.658;2.328;2022-10-28T08:23:54;22.00;60.10
72576;DHT22;60613;48.658;2.328;2022-10-28T08:26:19;22.00;60.10
72576;DHT22;60613;48.658;2.328;2022-10-28T08:28:45;22.00;60.00
72576;DHT22;60613;48.658;2.328;2022-10-28T08:31:11;22.00;59.90
72576;DHT22;60613;48.658;2.328;2022-10-28T08:33:39;22.00;59.50
72576;DHT22;60613;48.658;2.328;2022-10-28T08:36:13;22.00;61.00
72576;DHT22;60613;48.658;2.328;2022-10-28T08:38:39;22.00;59.70
72576;DHT22;60613;48.658;2.328;2022-10-28T08:46:43;21.90;60.10
72576;DHT22;60613;48.658;2.328;2022-10-28T08:49:17;21.90;60.40
72576;DHT22;60613;48.658;2.328;2022-10-28T08:51:56;21.90;60.60
72576;DHT22;60613;48.658;2.328;2022-10-28T08:54:48;22.00;60.80
72576;DHT22;60613;48.658;2.328;2022-10-28T08:57:21;22.00;61.70
72576;DHT22;60613;48.658;2.328;2022-10-28T08:59:50;22.00;61.00
72576;DHT22;60613;48.658;2.328;2022-10-28T09:02:27;22.00;61.20
72576;DHT22;60613;48.658;2.328;2022-10-28T09:05:16;22.00;61.60
72576;DHT22;60613;48.658;2.328;2022-10-28T09:07:44;22.00;61.40
72576;DHT22;60613;48.658;2.328;2022-10-28T09:10:13;22.00;61.10
72576;DHT22;60613;48.658;2.328;2022-10-28T09:15:39;22.10;61.60
72576;DHT22;60613;48.658;2.328;2022-10-28T09:18:39;22.00;61.40
72576;DHT22;60613;48.658;2.328;2022-10-28T09:21:17;22.00;62.10
72576;DHT22;60613;48.658;2.328;2022-10-28T09:23:51;22.00;61.30
72576;DHT22;60613;48.658;2.328;2022-10-28T09:26:45;22.10;61.90
72576;DHT22;60613;48.658;2.328;2022-10-28T09:32:09;22.10;62.20
72576;DHT22;60613;48.658;2.328;2022-10-28T09:38:14;22.10;61.70
72576;DHT22;60613;48.658;2.328;2022-10-28T09:40:24;22.10;62.40
72576;DHT22;60613;48.658;2.328;2022-10-28T09:45:47;22.20;62.10
72576;DHT22;60613;48.658;2.328;2022-10-28T09:48:23;22.30;62.00
72576;DHT22;60613;48.658;2.328;2022-10-28T09:50:51;22.40;62.00
72576;DHT22;60613;48.658;2.328;2022-10-28T09:55:56;22.50;61.30
72576;DHT22;60613;48.658;2.328;2022-10-28T09:58:22;22.50;61.30
72576;DHT22;60613;48.658;2.328;2022-10-28T10:00:48;22.50;61.00
72576;DHT22;60613;48.658;2.328;2022-10-28T10:03:15;22.50;60.90
72576;DHT22;60613;48.658;2.328;2022-10-28T10:05:44;22.50;61.30
72576;DHT22;60613;48.658;2.328;2022-10-28T10:08:14;22.50;61.40
72576;DHT22;60613;48.658;2.328;2022-10-28T10:10:58;22.60;61.40
72576;DHT22;60613;48.658;2.328;2022-10-28T10:13:33;22.60;61.40
72576;DHT22;60613;48.658;2.328;2022-10-28T10:16:04;22.60;61.40
72576;DHT22;60613;48.658;2.328;2022-10-28T10:18:33;22.60;61.00
72576;DHT22;60613;48.658;2.328;2022-10-28T10:20:59;22.60;61.10
72576;DHT22;60613;48.658;2.328;2022-10-28T10:23:35;22.60;61.00
72576;DHT22;60613;48.658;2.328;2022-10-28T10:28:32;22.60;61.80
72576;DHT22;60613;48.658;2.328;2022-10-28T10:31:04;22.60;61.80
72576;DHT22;60613;48.658;2.328;2022-10-28T10:33:32;22.60;61.40
72576;DHT22;60613;48.658;2.328;2022-10-28T10:38:36;22.60;61.20
72576;DHT22;60613;48.658;2.328;2022-10-28T10:41:03;22.60;61.10
72576;DHT22;60613;48.658;2.328;2022-10-28T10:43:30;22.60;61.30
72576;DHT22;60613;48.658;2.328;2022-10-28T10:46:13;22.60;61.00
72576;DHT22;60613;48.658;2.328;2022-10-28T10:48:42;22.50;61.30
72576;DHT22;60613;48.658;2.328;2022-10-28T10:53:35;22.50;60.70
72576;DHT22;60613;48.658;2.328;2022-10-28T10:56:07;22.50;60.60
72576;DHT22;60613;48.658;2.328;2022-10-28T10:58:36;22.50;60.80
72576;DHT22;60613;48.658;2.328;2022-10-28T11:01:05;22.50;60.60
72576;DHT22;60613;48.658;2.328;2022-10-28T11:03:53;22.50;60.70
72576;DHT22;60613;48.658;2.328;2022-10-28T11:06:52;22.50;60.70
72576;DHT22;60613;48.658;2.328;2022-10-28T11:09:30;22.50;60.80
72576;DHT22;60613;48.658;2.328;2022-10-28T11:11:57;22.50;61.00
72576;DHT22;60613;48.658;2.328;2022-10-28T11:14:28;22.50;60.80
72576;DHT22;60613;48.658;2.328;2022-10-28T11:16:58;22.50;60.60
72576;DHT22;60613;48.658;2.328;2022-10-28T11:19:32;22.60;60.60
72576;DHT22;60613;48.658;2.328;2022-10-28T11:22:24;22.50;60.30
72576;DHT22;60613;48.658;2.328;2022-10-28T11:27:41;22.50;60.30
72576;DHT22;60613;48.658;2.328;2022-10-28T11:30:17;22.60;60.60
72576;DHT22;60613;48.658;2.328;2022-10-28T11:33:07;22.50;60.70
72576;DHT22;60613;48.658;2.328;2022-10-28T11:38:52;22.60;60.70
72576;DHT22;60613;48.658;2.328;2022-10-28T11:41:34;22.50;60.40
72576;DHT22;60613;48.658;2.328;2022-10-28T11:44:10;22.50;60.50
72576;DHT22;60613;48.658;2.328;2022-10-28T11:52:31;22.60;60.60
72576;DHT22;60613;48.658;2.328;2022-10-28T12:05:53;22.60;60.80
72576;DHT22;60613;48.658;2.328;2022-10-28T12:11:20;22.60;60.70
72576;DHT22;60613;48.658;2.328;2022-10-28T12:16:38;22.60;60.20
72576;DHT22;60613;48.658;2.328;2022-10-28T12:19:17;22.60;60.70
72576;DHT22;60613;48.658;2.328;2022-10-28T12:24:19;22.60;60.60
72576;DHT22;60613;48.658;2.328;2022-10-28T12:26:52;22.60;60.70
72576;DHT22;60613;48.658;2.328;2022-10-28T12:29:28;22.60;60.60
72576;DHT22;60613;48.658;2.328;2022-10-28T12:32:19;22.60;60.60
72576;DHT22;60613;48.658;2.328;2022-10-28T12:38:27;22.60;60.60
72576;DHT22;60613;48.658;2.328;2022-10-28T12:40:50;22.70;60.50
72576;DHT22;60613;48.658;2.328;2022-10-28T12:43:35;22.70;60.50
72576;DHT22;60613;48.658;2.328;2022-10-28T12:46:03;22.60;60.60
72576;DHT22;60613;48.658;2.328;2022-10-28T12:48:38;22.70;60.50
72576;DHT22;60613;48.658;2.328;2022-10-28T12:51:26;22.70;60.60
72576;DHT22;60613;48.658;2.328;2022-10-28T12:56:30;22.70;61.70
72576;DHT22;60613;48.658;2.328;2022-10-28T12:59:05;22.70;60.70
72576;DHT22;60613;48.658;2.328;2022-10-28T13:01:35;22.70;60.50
72576;DHT22;60613;48.658;2.328;2022-10-28T13:04:02;22.70;60.60
72576;DHT22;60613;48.658;2.328;2022-10-28T13:12:25;22.70;60.60
72576;DHT22;60613;48.658;2.328;2022-10-28T13:20:46;22.70;60.50
72576;DHT22;60613;48.658;2.328;2022-10-28T13:23:21;22.70;60.70
72576;DHT22;60613;48.658;2.328;2022-10-28T13:26:20;22.70;60.60
72576;DHT22;60613;48.658;2.328;2022-10-28T13:28:49;22.70;60.50
72576;DHT22;60613;48.658;2.328;2022-10-28T13:31:16;22.70;60.70
72576;DHT22;60613;48.658;2.328;2022-10-28T13:34:03;22.70;60.80
72576;DHT22;60613;48.658;2.328;2022-10-28T13:36:36;22.70;60.60
72576;DHT22;60613;48.658;2.328;2022-10-28T13:45:00;22.70;60.50
72576;DHT22;60613;48.658;2.328;2022-10-28T13:47:33;22.70;60.70
72576;DHT22;60613;48.658;2.328;2022-10-28T13:52:40;22.70;60.80
72576;DHT22;60613;48.658;2.328;2022-10-28T13:55:25;22.70;60.80
72576;DHT22;60613;48.658;2.328;2022-10-28T13:58:19;22.70;60.70
72576;DHT22;60613;48.658;2.328;2022-10-28T14:00:43;22.70;60.60
72576;DHT22;60613;48.658;2.328;2022-10-28T14:03:19;22.70;60.60
72576;DHT22;60613;48.658;2.328;2022-10-28T14:08:26;22.70;60.60
72576;DHT22;60613;48.658;2.328;2022-10-28T14:11:12;22.70;60.80
72576;DHT22;60613;48.658;2.328;2022-10-28T14:13:51;22.80;60.70
72576;DHT22;60613;48.658;2.328;2022-10-28T14:18:54;22.80;60.70
72576;DHT22;60613;48.658;2.328;2022-10-28T14:21:23;22.80;60.70
72576;DHT22;60613;48.658;2.328;2022-10-28T14:24:12;22.70;60.70
72576;DHT22;60613;48.658;2.328;2022-10-28T14:27:58;22.80;60.70
72576;DHT22;60613;48.658;2.328;2022-10-28T14:30:16;22.80;60.80
72576;DHT22;60613;48.658;2.328;2022-10-28T14:41:04;22.80;60.80
72576;DHT22;60613;48.658;2.328;2022-10-28T14:46:39;22.80;60.70
72576;DHT22;60613;48.658;2.328;2022-10-28T14:49:23;22.80;60.70
72576;DHT22;60613;48.658;2.328;2022-10-28T14:51:50;22.80;61.70
72576;DHT22;60613;48.658;2.328;2022-10-28T14:54:33;22.80;60.70
72576;DHT22;60613;48.658;2.328;2022-10-28T14:57:03;22.80;60.20
72576;DHT22;60613;48.658;2.328;2022-10-28T14:59:35;22.80;60.20
72576;DHT22;60613;48.658;2.328;2022-10-28T15:04:41;22.80;60.70
72576;DHT22;60613;48.658;2.328;2022-10-28T15:07:12;22.80;60.60
72576;DHT22;60613;48.658;2.328;2022-10-28T15:09:39;22.80;60.50
72576;DHT22;60613;48.658;2.328;2022-10-28T15:12:12;22.80;60.40
72576;DHT22;60613;48.658;2.328;2022-10-28T15:14:46;22.80;61.80
72576;DHT22;60613;48.658;2.328;2022-10-28T15:17:23;22.90;60.50
72576;DHT22;60613;48.658;2.328;2022-10-28T15:19:55;22.80;60.50
72576;DHT22;60613;48.658;2.328;2022-10-28T15:22:29;23.00;60.50
72576;DHT22;60613;48.658;2.328;2022-10-28T15:25:00;23.00;60.30
72576;DHT22;60613;48.658;2.328;2022-10-28T15:27:36;23.10;60.10
72576;DHT22;60613;48.658;2.328;2022-10-28T15:30:25;23.10;60.00
72576;DHT22;60613;48.658;2.328;2022-10-28T15:32:51;23.20;60.10
72576;DHT22;60613;48.658;2.328;2022-10-28T15:37:57;23.10;59.80
72576;DHT22;60613;48.658;2.328;2022-10-28T15:40:33;23.20;59.80
72576;DHT22;60613;48.658;2.328;2022-10-28T15:43:03;23.20;59.60
72576;DHT22;60613;48.658;2.328;2022-10-28T15:45:31;23.20;59.40
72576;DHT22;60613;48.658;2.328;2022-10-28T15:47:58;23.30;59.30
72576;DHT22;60613;48.658;2.328;2022-10-28T15:50:26;23.30;59.30
72576;DHT22;60613;48.658;2.328;2022-10-28T15:52:54;23.30;59.50
72576;DHT22;60613;48.658;2.328;2022-10-28T15:55:40;23.30;59.70
72576;DHT22;60613;48.658;2.328;2022-10-28T16:00:49;23.30;59.90
72576;DHT22;60613;48.658;2.328;2022-10-28T16:03:45;23.40;59.40
72576;DHT22;60613;48.658;2.328;2022-10-28T16:06:34;23.40;59.60
72576;DHT22;60613;48.658;2.328;2022-10-28T16:09:10;23.40;59.90
72576;DHT22;60613;48.658;2.328;2022-10-28T16:11:41;23.40;59.40
72576;DHT22;60613;48.658;2.328;2022-10-28T16:16:48;23.40;59.00
72576;DHT22;60613;48.658;2.328;2022-10-28T16:19:26;23.40;59.00
72576;DHT22;60613;48.658;2.328;2022-10-28T16:21:52;23.40;59.30
72576;DHT22;60613;48.658;2.328;2022-10-28T16:24:18;23.40;59.40
72576;DHT22;60613;48.658;2.328;2022-10-28T16:26:43;23.40;60.30
72576;DHT22;60613;48.658;2.328;2022-10-28T16:29:09;23.40;59.60
72576;DHT22;60613;48.658;2.328;2022-10-28T16:31:34;23.40;59.60
72576;DHT22;60613;48.658;2.328;2022-10-28T16:34:00;23.40;59.50
72576;DHT22;60613;48.658;2.328;2022-10-28T16:36:27;23.50;59.80
72576;DHT22;60613;48.658;2.328;2022-10-28T16:38:53;23.50;59.50
72576;DHT22;60613;48.658;2.328;2022-10-28T16:41:19;23.50;60.60
72576;DHT22;60613;48.658;2.328;2022-10-28T16:43:45;23.40;60.90
72576;DHT22;60613;48.658;2.328;2022-10-28T16:46:12;23.40;62.40
72576;DHT22;60613;48.658;2.328;2022-10-28T16:48:37;23.40;61.70
72576;DHT22;60613;48.658;2.328;2022-10-28T16:51:05;23.40;61.80
72576;DHT22;60613;48.658;2.328;2022-10-28T16:53:34;23.30;61.70
72576;DHT22;60613;48.658;2.328;2022-10-28T16:56:00;23.30;61.60
72576;DHT22;60613;48.658;2.328;2022-10-28T16:58:27;23.30;62.60
72576;DHT22;60613;48.658;2.328;2022-10-28T17:00:54;23.30;62.60
72576;DHT22;60613;48.658;2.328;2022-10-28T17:03:20;23.30;62.60
72576;DHT22;60613;48.658;2.328;2022-10-28T17:05:46;23.30;62.50
72576;DHT22;60613;48.658;2.328;2022-10-28T17:08:13;23.30;61.70
72576;DHT22;60613;48.658;2.328;2022-10-28T17:10:39;23.40;62.00
72576;DHT22;60613;48.658;2.328;2022-10-28T17:13:11;23.40;62.10
72576;DHT22;60613;48.658;2.328;2022-10-28T17:15:37;23.50;61.80
72576;DHT22;60613;48.658;2.328;2022-10-28T17:18:03;23.50;61.80
72576;DHT22;60613;48.658;2.328;2022-10-28T17:20:29;23.50;61.80
72576;DHT22;60613;48.658;2.328;2022-10-28T17:22:54;23.40;61.80
72576;DHT22;60613;48.658;2.328;2022-10-28T17:25:23;23.30;62.10
72576;DHT22;60613;48.658;2.328;2022-10-28T17:27:48;23.30;61.60
72576;DHT22;60613;48.658;2.328;2022-10-28T17:30:15;23.30;62.80
72576;DHT22;60613;48.658;2.328;2022-10-28T17:32:42;23.30;62.10
72576;DHT22;60613;48.658;2.328;2022-10-28T17:35:08;23.30;62.30
72576;DHT22;60613;48.658;2.328;2022-10-28T17:37:33;23.20;62.50
72576;DHT22;60613;48.658;2.328;2022-10-28T17:39:59;23.30;62.60
72576;DHT22;60613;48.658;2.328;2022-10-28T17:42:24;23.20;62.00
72576;DHT22;60613;48.658;2.328;2022-10-28T17:44:50;23.20;62.70
72576;DHT22;60613;48.658;2.328;2022-10-28T17:47:16;23.20;62.00
72576;DHT22;60613;48.658;2.328;2022-10-28T17:49:42;23.20;63.40
72576;DHT22;60613;48.658;2.328;2022-10-28T17:52:07;23.20;62.50
72576;DHT22;60613;48.658;2.328;2022-10-28T17:54:33;23.20;62.20
72576;DHT22;60613;48.658;2.328;2022-10-28T17:56:59;23.10;62.40
72576;DHT22;60613;48.658;2.328;2022-10-28T17:59:24;23.20;62.00
72576;DHT22;60613;48.658;2.328;2022-10-28T18:01:50;23.20;61.70
72576;DHT22;60613;48.658;2.328;2022-10-28T18:04:16;23.20;61.90
72576;DHT22;60613;48.658;2.328;2022-10-28T18:06:42;23.30;61.80
72576;DHT22;60613;48.658;2.328;2022-10-28T18:09:11;23.30;62.00
72576;DHT22;60613;48.658;2.328;2022-10-28T18:11:37;23.20;62.10
72576;DHT22;60613;48.658;2.328;2022-10-28T18:14:04;23.20;61.90
72576;DHT22;60613;48.658;2.328;2022-10-28T18:16:30;23.20;61.90
72576;DHT22;60613;48.658;2.328;2022-10-28T18:19:02;23.20;62.30
72576;DHT22;60613;48.658;2.328;2022-10-28T18:21:28;23.20;61.70
72576;DHT22;60613;48.658;2.328;2022-10-28T18:23:54;23.20;61.90
72576;DHT22;60613;48.658;2.328;2022-10-28T18:26:28;23.20;62.30
72576;DHT22;60613;48.658;2.328;2022-10-28T18:28:55;23.20;62.40
72576;DHT22;60613;48.658;2.328;2022-10-28T18:31:20;23.20;62.40
72576;DHT22;60613;48.658;2.328;2022-10-28T18:33:48;23.20;62.30
72576;DHT22;60613;48.658;2.328;2022-10-28T18:36:21;23.10;62.30
72576;DHT22;60613;48.658;2.328;2022-10-28T18:38:48;23.20;62.40
72576;DHT22;60613;48.658;2.328;2022-10-28T18:41:16;23.10;62.30
72576;DHT22;60613;48.658;2.328;2022-10-28T18:43:42;23.20;62.40
72576;DHT22;60613;48.658;2.328;2022-10-28T18:46:08;23.10;62.10
72576;DHT22;60613;48.658;2.328;2022-10-28T18:48:34;23.10;62.20
72576;DHT22;60613;48.658;2.328;2022-10-28T18:51:03;23.10;62.10
72576;DHT22;60613;48.658;2.328;2022-10-28T18:53:35;23.10;62.20
72576;DHT22;60613;48.658;2.328;2022-10-28T18:56:02;23.10;63.30
72576;DHT22;60613;48.658;2.328;2022-10-28T18:58:29;23.10;62.20
72576;DHT22;60613;48.658;2.328;2022-10-28T19:01:15;23.10;62.20
72576;DHT22;60613;48.658;2.328;2022-10-28T19:03:42;23.10;62.30
72576;DHT22;60613;48.658;2.328;2022-10-28T19:06:11;23.10;62.20
72576;DHT22;60613;48.658;2.328;2022-10-28T19:08:38;23.10;62.10
72576;DHT22;60613;48.658;2.328;2022-10-28T19:11:04;23.10;62.10
72576;DHT22;60613;48.658;2.328;2022-10-28T19:13:35;23.10;61.90
72576;DHT22;60613;48.658;2.328;2022-10-28T19:16:01;23.10;62.10
72576;DHT22;60613;48.658;2.328;2022-10-28T19:18:27;23.10;62.00
72576;DHT22;60613;48.658;2.328;2022-10-28T19:20:52;23.00;61.90
72576;DHT22;60613;48.658;2.328;2022-10-28T19:23:21;23.10;62.20
72576;DHT22;60613;48.658;2.328;2022-10-28T19:25:54;23.00;61.90
72576;DHT22;60613;48.658;2.328;2022-10-28T19:28:20;23.00;62.10
72576;DHT22;60613;48.658;2.328;2022-10-28T19:30:46;23.00;62.10
72576;DHT22;60613;48.658;2.328;2022-10-28T19:33:11;23.00;61.90
72576;DHT22;60613;48.658;2.328;2022-10-28T19:35:37;23.00;61.80
72576;DHT22;60613;48.658;2.328;2022-10-28T19:38:02;23.00;61.80
72576;DHT22;60613;48.658;2.328;2022-10-28T19:40:28;23.00;61.80
72576;DHT22;60613;48.658;2.328;2022-10-28T19:42:54;23.00;61.70
72576;DHT22;60613;48.658;2.328;2022-10-28T19:45:21;23.00;61.60
72576;DHT22;60613;48.658;2.328;2022-10-28T19:47:46;23.00;61.80
72576;DHT22;60613;48.658;2.328;2022-10-28T19:50:12;23.00;61.70
72576;DHT22;60613;48.658;2.328;2022-10-28T19:52:38;23.00;61.60
72576;DHT22;60613;48.658;2.328;2022-10-28T19:55:05;23.00;61.80
72576;DHT22;60613;48.658;2.328;2022-10-28T19:57:31;23.00;61.70
72576;DHT22;60613;48.658;2.328;2022-10-28T19:59:56;23.00;61.60
72576;DHT22;60613;48.658;2.328;2022-10-28T20:02:22;23.00;61.70
72576;DHT22;60613;48.658;2.328;2022-10-28T20:04:48;23.00;61.60
72576;DHT22;60613;48.658;2.328;2022-10-28T20:07:18;23.00;61.70
72576;DHT22;60613;48.658;2.328;2022-10-28T20:09:44;23.00;61.70
72576;DHT22;60613;48.658;2.328;2022-10-28T20:12:10;23.20;61.60
72576;DHT22;60613;48.658;2.328;2022-10-28T20:14:35;23.20;61.50
72576;DHT22;60613;48.658;2.328;2022-10-28T20:17:01;23.20;61.40
72576;DHT22;60613;48.658;2.328;2022-10-28T20:19:27;23.20;61.60
72576;DHT22;60613;48.658;2.328;2022-10-28T20:21:52;23.10;61.60
72576;DHT22;60613;48.658;2.328;2022-10-28T20:24:18;23.10;61.70
72576;DHT22;60613;48.658;2.328;2022-10-28T20:26:44;23.10;61.70
72576;DHT22;60613;48.658;2.328;2022-10-28T20:29:10;23.10;61.60
72576;DHT22;60613;48.658;2.328;2022-10-28T20:31:36;23.10;62.10
72576;DHT22;60613;48.658;2.328;2022-10-28T20:34:03;23.10;62.50
72576;DHT22;60613;48.658;2.328;2022-10-28T20:36:30;23.10;62.80
72576;DHT22;60613;48.658;2.328;2022-10-28T20:39:01;23.10;63.10
72576;DHT22;60613;48.658;2.328;2022-10-28T20:41:32;23.00;63.00
72576;DHT22;60613;48.658;2.328;2022-10-28T20:43:58;23.10;63.10
72576;DHT22;60613;48.658;2.328;2022-10-28T20:46:25;23.10;63.00
72576;DHT22;60613;48.658;2.328;2022-10-28T20:48:51;23.10;62.80
72576;DHT22;60613;48.658;2.328;2022-10-28T20:51:18;23.00;62.80
72576;DHT22;60613;48.658;2.328;2022-10-28T20:56:20;23.00;63.00
72576;DHT22;60613;48.658;2.328;2022-10-28T20:58:46;23.00;63.10
